Летающим высоко и низко: ПОГОДА В АЭРОПОРТАХ

Datasource: http://meteocentre.com/cgi-bin/get_taf?STN=UUEE
    за последний срок по а/п  (сейчас 16:06 мск)
UUEE на Метеоцентре                GFS-прогноз по UUEE                   Погода сейчас
UUEE: 6

Line #10 1 69: TAF UUEE 211650Z 2118/2218 17004MPS CAVOK TX25/2212Z TN10/2202Z TEMPO

211650Z Авиапрогноз Москва (Шереметьево), составлен 21 сентября 20:50 мск:
с 21:00 (21 сентября) до 21:00 (22 сентября) ветер 170° (Ю) 4 м/c; погода хорошая; [TX25/2212Z] [TN10/2202Z]
Временами

Line #11 2 22: 2208/2217 16008G13MPS
с 11:00 (22 сентября) до 20:00 (22 сентября) ветер 160° (ЮЮВ) 8 м/c; порывы 13 м/c;

Line #12 3 63: TAF UUEE 211650Z 2118/2218 17004MPS CAVOK TX25/2212Z TN10/2202Z

Авиапрогноз Москва (Шереметьево), составлен 21 сентября 20:50 мск:
с 21:00 (21 сентября) до 21:00 (22 сентября) ветер 170° (Ю) 4 м/c; погода хорошая; [TX25/2212Z] [TN10/2202Z]

Line #13 4 28: TEMPO 2208/2217 16008G13MPS

Временами с 11:00 (22 сентября) до 20:00 (22 сентября) ветер 160° (ЮЮВ) 8 м/c; порывы 13 м/c;

Line #14 5 63: TAF UUEE 211650Z 2118/2218 17004MPS CAVOK TX25/2212Z TN10/2202Z

Авиапрогноз Москва (Шереметьево), составлен 21 сентября 20:50 мск:
с 21:00 (21 сентября) до 21:00 (22 сентября) ветер 170° (Ю) 4 м/c; погода хорошая; [TX25/2212Z] [TN10/2202Z]

Line #15 6 28: TEMPO 2208/2217 16008G13MPS

Временами с 11:00 (22 сентября) до 20:00 (22 сентября) ветер 160° (ЮЮВ) 8 м/c; порывы 13 м/c;